Cumberland, WV

6:58 AM EDT on April 21, 2018 (GMT -0400)
Greater Cumberland Regional

Weather History for KCBE - January, 2013

Change the Weather History Date:

Thursday, January 17, 2013

  Actual Average (KMRB) Record (KMRB)
Temperature  
Mean Temperature 37 °F -  
Max Temperature 41 °F 38 °F 69 °F (1990)
Min Temperature 33 °F 20 °F -13 °F (1982)
Degree Days  
Heating Degree Days 28    
Moisture  
Dew Point 29 °F    
Average Humidity 74    
Maximum Humidity 93    
Minimum Humidity 57    
Precipitation  
Precipitation 0.00 in - - ()
Sea Level Pressure  
Sea Level Pressure 30.12 in    
Wind  
Wind Speed 5 mph (NW)    
Max Wind Speed 20 mph    
Max Gust Speed 29 mph    
Visibility 10 miles    
Events      
Averages and records for this station are not official NWS values.
T = Trace of Precipitation, MM = Missing Value Source: NWS Daily Summary

Daily Weather History Graph

Daily Weather History Graph

Search for Another Location

Airport or City:

Astronomy

Jan. 17, 2013 Rise Set
Actual Time 7:33 AM EST 5:17 PM EST
Civil Twilight 7:03 AM EST 5:47 PM EST
Nautical Twilight 6:30 AM EST 6:20 PM EST
Astronomical Twilight 5:58 AM EST 6:52 PM EST
Moon 10:40 AM EST (1/17) No Moon Set
Length of Visible Light 10h 43m
Length of Day
9h 44m
Waxing Crescent, 37% of the Moon is Illuminated
Jan 17
Waxing Crescent
Jan 18
First Quarter
Jan 26
Full
Feb 3
Last Quarter
Feb 10
New

Hourly Weather History & Observations

Time (EST) Temp. Windchill Dew Point Humidity Pressure Visibility Wind Dir Wind Speed Gust Speed Precip Events Conditions
12:02 AM 41.0 °F - 30.2 °F 65% 30.03 in 10.0 mi Calm Calm - N/A   Clear
12:23 AM 41.0 °F 38.0 °F 28.4 °F 61% 30.04 in 10.0 mi SW 4.6 mph - N/A   Clear
12:47 AM 41.0 °F 38.0 °F 26.6 °F 57% 30.05 in 10.0 mi West 4.6 mph - N/A   Clear
1:08 AM 41.0 °F 38.0 °F 28.4 °F 61% 30.06 in 10.0 mi SW 4.6 mph - N/A   Clear
1:30 AM 41.0 °F - 26.6 °F 57% 30.05 in 10.0 mi Calm Calm - N/A   Clear
1:51 AM 39.2 °F 35.0 °F 28.4 °F 65% 30.06 in 10.0 mi SW 5.8 mph - N/A   Clear
2:12 AM 39.2 °F 34.2 °F 28.4 °F 65% 30.06 in 10.0 mi SSW 6.9 mph - N/A   Clear
2:55 AM 39.2 °F - 28.4 °F 65% 30.06 in 10.0 mi Calm Calm - N/A   Clear
3:16 AM 39.2 °F 37.0 °F 28.4 °F 65% 30.06 in 10.0 mi WSW 3.5 mph - N/A   Clear
3:38 AM 39.2 °F 35.9 °F 26.6 °F 61% 30.05 in 10.0 mi WSW 4.6 mph - N/A   Clear
3:59 AM 39.2 °F 35.0 °F 28.4 °F 65% 30.09 in 10.0 mi WSW 5.8 mph - N/A   Clear
4:20 AM 39.2 °F 33.6 °F 26.6 °F 61% 30.09 in 10.0 mi West 8.1 mph - N/A   Clear
4:41 AM 39.2 °F 34.2 °F 26.6 °F 61% 30.09 in 10.0 mi WSW 6.9 mph - N/A   Clear
5:03 AM 37.4 °F 29.8 °F 26.6 °F 65% 30.10 in 10.0 mi West 11.5 mph 19.6 mph N/A   Clear
5:24 AM 37.4 °F 28.9 °F 26.6 °F 65% 30.08 in 10.0 mi West 13.8 mph 19.6 mph N/A   Clear
5:45 AM 37.4 °F 28.9 °F 28.4 °F 70% 30.10 in 10.0 mi WNW 13.8 mph 17.3 mph N/A   Clear
6:07 AM 37.4 °F 27.2 °F 28.4 °F 70% 30.10 in 10.0 mi West 19.6 mph 28.8 mph N/A   Clear
6:28 AM 37.4 °F 27.8 °F 28.4 °F 70% 30.10 in 10.0 mi West 17.3 mph 24.2 mph N/A   Clear
6:49 AM 37.4 °F 27.8 °F 28.4 °F 70% 30.09 in 10.0 mi WNW 17.3 mph 24.2 mph N/A   Clear
7:10 AM 37.4 °F 28.2 °F 28.4 °F 70% 30.09 in 10.0 mi WNW 16.1 mph 21.9 mph N/A   Clear
7:32 AM 35.6 °F 30.7 °F 30.2 °F 81% 30.13 in 10.0 mi West 5.8 mph 17.3 mph N/A   Clear
7:53 AM 35.6 °F 29.2 °F 30.2 °F 81% 30.15 in 10.0 mi NW 8.1 mph - N/A   Clear
8:14 AM 35.6 °F 29.9 °F 30.2 °F 81% 30.15 in 10.0 mi WNW 6.9 mph - N/A   Clear
8:35 AM 35.6 °F 29.9 °F 30.2 °F 81% 30.15 in 10.0 mi West 6.9 mph - N/A   Scattered Clouds
8:57 AM 35.6 °F 28.6 °F 30.2 °F 81% 30.16 in 10.0 mi West 9.2 mph - N/A   Clear
9:20 AM - - - N/A% - - North - - N/A   Unknown
9:42 AM - - - N/A% - - North - - N/A   Unknown
10:03 AM 37.4 °F 34.9 °F 32.0 °F 81% 30.17 in 10.0 mi NNE 3.5 mph - N/A   Scattered Clouds
10:24 AM 37.4 °F 32.8 °F 30.2 °F 75% 30.16 in 10.0 mi North 5.8 mph - N/A   Mostly Cloudy
10:45 AM 37.4 °F 30.3 °F 30.2 °F 75% 30.16 in 10.0 mi NNW 10.4 mph - N/A   Mostly Cloudy
11:07 AM 37.4 °F 32.1 °F 30.2 °F 75% 30.17 in 10.0 mi North 6.9 mph 18.4 mph N/A   Mostly Cloudy
11:28 AM 37.4 °F 30.8 °F 30.2 °F 75% 30.17 in 10.0 mi North 9.2 mph 18.4 mph N/A   Overcast
11:49 AM 35.6 °F 29.2 °F 30.2 °F 81% 30.15 in 10.0 mi North 8.1 mph - N/A   Overcast
12:10 PM 35.6 °F 28.6 °F 30.2 °F 81% 30.14 in 10.0 mi North 9.2 mph - N/A   Overcast
12:32 PM 37.4 °F 30.3 °F 30.2 °F 75% 30.14 in 10.0 mi North 10.4 mph - N/A   Mostly Cloudy
12:53 PM 37.4 °F 31.4 °F 30.2 °F 75% 30.14 in 10.0 mi North 8.1 mph - N/A   Scattered Clouds
1:14 PM 37.4 °F 32.8 °F 30.2 °F 75% 30.14 in 10.0 mi North 5.8 mph - N/A   Scattered Clouds
1:35 PM 37.4 °F 32.8 °F 30.2 °F 75% 30.11 in 10.0 mi North 5.8 mph - N/A   Scattered Clouds
1:57 PM 37.4 °F 32.8 °F 30.2 °F 75% 30.10 in 10.0 mi NNW 5.8 mph - N/A   Scattered Clouds
1:59 PM 37.4 °F 32.8 °F 30.2 °F 75% 30.10 in 10.0 mi North 5.8 mph - N/A   Scattered Clouds
2:34 PM 37.4 °F - 30.2 °F 75% 30.10 in 10.0 mi Calm Calm - N/A   Scattered Clouds
3:00 PM 37.4 °F 33.8 °F 30.2 °F 75% 30.09 in 10.0 mi NNW 4.6 mph - N/A   Clear
3:22 PM 37.4 °F 34.9 °F 30.2 °F 75% 30.11 in 10.0 mi North 3.5 mph - N/A   Clear
3:43 PM 37.4 °F 32.8 °F 30.2 °F 75% 30.11 in 10.0 mi North 5.8 mph - N/A   Clear
4:04 PM 37.4 °F 32.8 °F 30.2 °F 75% 30.11 in 10.0 mi North 5.8 mph - N/A   Clear
4:25 PM 37.4 °F 32.8 °F 30.2 °F 75% 30.12 in 10.0 mi NNW 5.8 mph - N/A   Clear
4:47 PM 37.4 °F - 30.2 °F 75% 30.14 in 10.0 mi Calm Calm - N/A   Clear
5:08 PM 37.4 °F 32.1 °F 30.2 °F 75% 30.13 in 10.0 mi NNW 6.9 mph - N/A   Clear
5:29 PM 37.4 °F - 28.4 °F 70% 30.15 in 10.0 mi Calm Calm - N/A   Clear
5:50 PM 37.4 °F 34.9 °F 28.4 °F 70% 30.16 in 10.0 mi NW 3.5 mph - N/A   Clear
6:12 PM 35.6 °F 32.8 °F 30.2 °F 81% 30.14 in 10.0 mi NNW 3.5 mph - N/A   Clear
6:33 PM 35.6 °F - 30.2 °F 81% 30.15 in 10.0 mi Calm Calm - N/A   Clear
6:54 PM 35.6 °F - 30.2 °F 81% 30.14 in 10.0 mi Calm Calm - N/A   Clear
7:15 PM 35.6 °F - 30.2 °F 81% 30.15 in 10.0 mi Calm Calm - N/A   Clear
7:37 PM 35.6 °F - 30.2 °F 81% 30.13 in 10.0 mi Calm Calm - N/A   Clear
7:58 PM 35.6 °F - 32.0 °F 87% 30.13 in 10.0 mi Calm Calm - N/A   Clear
8:19 PM 33.8 °F - 32.0 °F 93% 30.14 in 10.0 mi Calm Calm - N/A   Clear
8:41 PM 33.8 °F - 30.2 °F 87% 30.14 in 10.0 mi Calm Calm - N/A   Clear
9:02 PM 33.8 °F - 32.0 °F 93% 30.14 in 10.0 mi Calm Calm - N/A   Clear
9:23 PM 33.8 °F - 30.2 °F 87% 30.15 in 10.0 mi Calm Calm - N/A   Clear
9:44 PM 35.6 °F 29.2 °F 28.4 °F 75% 30.14 in 10.0 mi NW 8.1 mph - N/A   Clear
10:06 PM 35.6 °F 30.7 °F 28.4 °F 75% 30.15 in 10.0 mi NNW 5.8 mph - N/A   Clear
10:27 PM 35.6 °F 31.7 °F 28.4 °F 75% 30.14 in 10.0 mi West 4.6 mph - N/A   Clear
10:48 PM 35.6 °F 29.2 °F 28.4 °F 75% 30.14 in 10.0 mi North 8.1 mph - N/A   Scattered Clouds
11:10 PM 35.6 °F - 28.4 °F 75% 30.15 in 10.0 mi Calm Calm - N/A   Clear
11:31 PM 35.6 °F 28.0 °F 26.6 °F 70% 30.12 in 10.0 mi NW 10.4 mph - N/A   Clear
11:52 PM 35.6 °F 30.7 °F 26.6 °F 70% 30.12 in 10.0 mi West 5.8 mph - N/A   Clear